Pagina principală
METAR-TAF:

METAR-TAF

Aeroporturi :

Muskogee, Oklahoma, Statele Unite ale Americii

Latitudine: 35-39-25N, longitudine: 095-21-35W, elevație: 185 m

Observații meteo curente

Raportul a fost făcut în urmă cu 17 de minute, la 22:53 UTC
Vânt 9 kt de la Sud/Sud-vest cu rafale de până la 17 kt
Temperatură 33°C
Umiditate 53%
Presiune 1014 hPa
Vizibilitate: 16.1 km
Cer senin

METAR: KMKO 222253Z AUTO 20009G17KT 10SM CLR 33/22 A2995 RMK AO2 SLP132 T03280222

Ora: 18:10 (23:10 UTC)


TAF: lipsă

Observații și prognoze meteo pentru peste 4.000 de aeroporturi (rapoarte METAR și TAF).

Stațiile disponibile sunt reprezentate pe hartă prin puncte galbene și roșii.

Țineți indicatorul mouse-ului pe punctul dorit pentru a vedea denumirea stației.

Apoi, faceți clic pentru a vedea observațiile și prognozele meteorologice.

Pentru a schimba harta: Pentru mărire, faceți clic pe butoanele verzi cu cruce neagră; pentru micșorare, pe butonul verde cu o liniuță; pentru hărți învecinate, pe săgețile verzi.


METAR-TAF: